sensor_id;sensor_type;location;lat;lon;timestamp;P1;durP1;ratioP1;P2;durP2;ratioP2
70322;SDS011;57735;56.264;43.898;2022-08-21T00:00:29;9.45;;;4.03;;
70322;SDS011;57735;56.264;43.898;2022-08-21T00:03:01;8.98;;;4.40;;
70322;SDS011;57735;56.264;43.898;2022-08-21T00:05:38;19.65;;;4.35;;
70322;SDS011;57735;56.264;43.898;2022-08-21T00:08:19;11.50;;;4.18;;
70322;SDS011;57735;56.264;43.898;2022-08-21T00:10:53;6.57;;;3.77;;
70322;SDS011;57735;56.264;43.898;2022-08-21T00:13:24;7.63;;;4.28;;
70322;SDS011;57735;56.264;43.898;2022-08-21T00:15:55;8.95;;;4.20;;
70322;SDS011;57735;56.264;43.898;2022-08-21T00:18:29;13.77;;;4.50;;
70322;SDS011;57735;56.264;43.898;2022-08-21T00:21:00;11.83;;;4.50;;
70322;SDS011;57735;56.264;43.898;2022-08-21T00:23:32;8.80;;;4.15;;
70322;SDS011;57735;56.264;43.898;2022-08-21T00:26:04;7.57;;;4.15;;
70322;SDS011;57735;56.264;43.898;2022-08-21T00:28:36;9.13;;;3.90;;
70322;SDS011;57735;56.264;43.898;2022-08-21T00:31:07;7.80;;;4.05;;
70322;SDS011;57735;56.264;43.898;2022-08-21T00:33:38;8.90;;;3.58;;
70322;SDS011;57735;56.264;43.898;2022-08-21T00:36:09;6.15;;;4.10;;
70322;SDS011;57735;56.264;43.898;2022-08-21T00:38:40;8.05;;;4.13;;
70322;SDS011;57735;56.264;43.898;2022-08-21T00:41:11;7.78;;;4.15;;
70322;SDS011;57735;56.264;43.898;2022-08-21T00:43:44;11.68;;;4.05;;
70322;SDS011;57735;56.264;43.898;2022-08-21T00:46:16;11.25;;;4.20;;
70322;SDS011;57735;56.264;43.898;2022-08-21T00:48:48;5.85;;;4.25;;
70322;SDS011;57735;56.264;43.898;2022-08-21T00:51:20;8.65;;;4.25;;
70322;SDS011;57735;56.264;43.898;2022-08-21T00:53:56;11.27;;;4.68;;
70322;SDS011;57735;56.264;43.898;2022-08-21T00:56:31;7.45;;;4.20;;
70322;SDS011;57735;56.264;43.898;2022-08-21T00:59:02;15.10;;;4.90;;
70322;SDS011;57735;56.264;43.898;2022-08-21T01:01:33;7.65;;;4.55;;
70322;SDS011;57735;56.264;43.898;2022-08-21T01:04:04;8.10;;;4.25;;
70322;SDS011;57735;56.264;43.898;2022-08-21T01:06:37;11.60;;;4.20;;
70322;SDS011;57735;56.264;43.898;2022-08-21T01:09:11;10.82;;;4.60;;
70322;SDS011;57735;56.264;43.898;2022-08-21T01:11:43;12.00;;;5.00;;
70322;SDS011;57735;56.264;43.898;2022-08-21T01:14:14;11.73;;;4.45;;
70322;SDS011;57735;56.264;43.898;2022-08-21T01:16:46;10.30;;;4.30;;
70322;SDS011;57735;56.264;43.898;2022-08-21T01:19:20;12.07;;;4.25;;
70322;SDS011;57735;56.264;43.898;2022-08-21T01:21:52;11.70;;;4.68;;
70322;SDS011;57735;56.264;43.898;2022-08-21T01:24:26;11.48;;;4.65;;
70322;SDS011;57735;56.264;43.898;2022-08-21T01:26:57;9.43;;;4.60;;
70322;SDS011;57735;56.264;43.898;2022-08-21T01:29:39;9.63;;;4.60;;
70322;SDS011;57735;56.264;43.898;2022-08-21T01:32:16;12.82;;;3.90;;
70322;SDS011;57735;56.264;43.898;2022-08-21T01:34:49;16.92;;;4.85;;
70322;SDS011;57735;56.264;43.898;2022-08-21T01:37:21;9.38;;;4.88;;
70322;SDS011;57735;56.264;43.898;2022-08-21T01:39:52;10.20;;;4.25;;
70322;SDS011;57735;56.264;43.898;2022-08-21T01:42:24;15.63;;;5.25;;
70322;SDS011;57735;56.264;43.898;2022-08-21T01:44:54;22.40;;;5.15;;
70322;SDS011;57735;56.264;43.898;2022-08-21T01:47:28;11.07;;;4.53;;
70322;SDS011;57735;56.264;43.898;2022-08-21T01:49:59;12.13;;;4.63;;
70322;SDS011;57735;56.264;43.898;2022-08-21T01:52:30;15.73;;;5.20;;
70322;SDS011;57735;56.264;43.898;2022-08-21T01:55:01;16.25;;;5.15;;
70322;SDS011;57735;56.264;43.898;2022-08-21T01:57:34;11.80;;;4.53;;
70322;SDS011;57735;56.264;43.898;2022-08-21T02:00:05;14.85;;;5.07;;
70322;SDS011;57735;56.264;43.898;2022-08-21T02:02:40;13.10;;;4.38;;
70322;SDS011;57735;56.264;43.898;2022-08-21T02:05:11;9.00;;;4.38;;
70322;SDS011;57735;56.264;43.898;2022-08-21T02:07:44;21.52;;;4.65;;
70322;SDS011;57735;56.264;43.898;2022-08-21T02:10:21;12.20;;;4.45;;
70322;SDS011;57735;56.264;43.898;2022-08-21T02:12:57;11.75;;;4.57;;
70322;SDS011;57735;56.264;43.898;2022-08-21T02:15:30;7.28;;;4.05;;
70322;SDS011;57735;56.264;43.898;2022-08-21T02:18:01;9.77;;;4.10;;
70322;SDS011;57735;56.264;43.898;2022-08-21T02:20:37;11.77;;;4.88;;
70322;SDS011;57735;56.264;43.898;2022-08-21T02:23:10;8.60;;;4.07;;
70322;SDS011;57735;56.264;43.898;2022-08-21T02:25:42;8.85;;;4.47;;
70322;SDS011;57735;56.264;43.898;2022-08-21T02:28:13;11.88;;;3.83;;
70322;SDS011;57735;56.264;43.898;2022-08-21T02:30:45;22.63;;;4.57;;
70322;SDS011;57735;56.264;43.898;2022-08-21T02:33:18;13.20;;;4.03;;
70322;SDS011;57735;56.264;43.898;2022-08-21T02:35:49;10.05;;;4.38;;
70322;SDS011;57735;56.264;43.898;2022-08-21T02:38:23;8.80;;;4.28;;
70322;SDS011;57735;56.264;43.898;2022-08-21T02:40:58;13.50;;;4.65;;
70322;SDS011;57735;56.264;43.898;2022-08-21T02:43:29;13.27;;;5.38;;
70322;SDS011;57735;56.264;43.898;2022-08-21T02:46:00;7.68;;;4.13;;
70322;SDS011;57735;56.264;43.898;2022-08-21T02:48:31;19.67;;;4.95;;
70322;SDS011;57735;56.264;43.898;2022-08-21T02:51:04;10.48;;;4.35;;
70322;SDS011;57735;56.264;43.898;2022-08-21T02:53:37;13.98;;;4.45;;
70322;SDS011;57735;56.264;43.898;2022-08-21T02:56:12;14.82;;;4.22;;
70322;SDS011;57735;56.264;43.898;2022-08-21T02:58:52;15.73;;;4.38;;
70322;SDS011;57735;56.264;43.898;2022-08-21T03:01:23;12.15;;;4.25;;
70322;SDS011;57735;56.264;43.898;2022-08-21T03:03:54;9.48;;;4.50;;
70322;SDS011;57735;56.264;43.898;2022-08-21T03:06:25;13.60;;;3.83;;
70322;SDS011;57735;56.264;43.898;2022-08-21T03:08:55;10.93;;;4.07;;
70322;SDS011;57735;56.264;43.898;2022-08-21T03:11:27;9.45;;;3.70;;
70322;SDS011;57735;56.264;43.898;2022-08-21T03:13:58;10.05;;;3.97;;
70322;SDS011;57735;56.264;43.898;2022-08-21T03:16:32;11.15;;;3.78;;
70322;SDS011;57735;56.264;43.898;2022-08-21T03:19:02;7.88;;;3.55;;
70322;SDS011;57735;56.264;43.898;2022-08-21T03:21:33;13.35;;;4.07;;
70322;SDS011;57735;56.264;43.898;2022-08-21T03:24:04;20.80;;;3.85;;
70322;SDS011;57735;56.264;43.898;2022-08-21T03:26:36;8.63;;;4.30;;
70322;SDS011;57735;56.264;43.898;2022-08-21T03:29:07;17.27;;;4.88;;
70322;SDS011;57735;56.264;43.898;2022-08-21T03:31:38;7.65;;;3.97;;
70322;SDS011;57735;56.264;43.898;2022-08-21T03:34:12;6.88;;;3.65;;
70322;SDS011;57735;56.264;43.898;2022-08-21T03:36:42;11.48;;;4.10;;
70322;SDS011;57735;56.264;43.898;2022-08-21T03:39:14;11.65;;;4.00;;
70322;SDS011;57735;56.264;43.898;2022-08-21T03:41:45;9.10;;;3.97;;
70322;SDS011;57735;56.264;43.898;2022-08-21T03:44:17;8.15;;;3.75;;
70322;SDS011;57735;56.264;43.898;2022-08-21T03:46:48;8.38;;;3.90;;
70322;SDS011;57735;56.264;43.898;2022-08-21T03:49:19;13.63;;;4.15;;
70322;SDS011;57735;56.264;43.898;2022-08-21T03:51:49;11.82;;;3.63;;
70322;SDS011;57735;56.264;43.898;2022-08-21T03:54:20;8.90;;;3.88;;
70322;SDS011;57735;56.264;43.898;2022-08-21T03:56:51;11.40;;;4.20;;
70322;SDS011;57735;56.264;43.898;2022-08-21T03:59:22;9.02;;;3.80;;
70322;SDS011;57735;56.264;43.898;2022-08-21T04:01:58;7.78;;;3.30;;
70322;SDS011;57735;56.264;43.898;2022-08-21T04:04:33;9.68;;;4.40;;
70322;SDS011;57735;56.264;43.898;2022-08-21T04:07:06;13.70;;;4.68;;
70322;SDS011;57735;56.264;43.898;2022-08-21T04:09:37;13.70;;;4.25;;
70322;SDS011;57735;56.264;43.898;2022-08-21T04:12:08;8.40;;;3.97;;
70322;SDS011;57735;56.264;43.898;2022-08-21T04:14:43;9.80;;;3.75;;
70322;SDS011;57735;56.264;43.898;2022-08-21T04:17:14;7.40;;;4.20;;
70322;SDS011;57735;56.264;43.898;2022-08-21T04:19:45;10.27;;;4.50;;
70322;SDS011;57735;56.264;43.898;2022-08-21T04:22:16;8.77;;;4.22;;
70322;SDS011;57735;56.264;43.898;2022-08-21T04:24:47;10.48;;;3.92;;
70322;SDS011;57735;56.264;43.898;2022-08-21T04:27:18;11.07;;;3.95;;
70322;SDS011;57735;56.264;43.898;2022-08-21T04:29:48;9.90;;;4.13;;
70322;SDS011;57735;56.264;43.898;2022-08-21T04:32:25;12.98;;;4.85;;
70322;SDS011;57735;56.264;43.898;2022-08-21T04:35:00;7.43;;;4.57;;
70322;SDS011;57735;56.264;43.898;2022-08-21T04:37:34;16.75;;;5.40;;
70322;SDS011;57735;56.264;43.898;2022-08-21T04:40:08;13.43;;;5.72;;
70322;SDS011;57735;56.264;43.898;2022-08-21T04:42:45;11.25;;;5.85;;
70322;SDS011;57735;56.264;43.898;2022-08-21T04:45:27;14.77;;;6.75;;
70322;SDS011;57735;56.264;43.898;2022-08-21T04:48:06;19.83;;;7.10;;
70322;SDS011;57735;56.264;43.898;2022-08-21T04:53:22;17.63;;;8.30;;
70322;SDS011;57735;56.264;43.898;2022-08-21T04:56:10;20.02;;;8.88;;
70322;SDS011;57735;56.264;43.898;2022-08-21T04:58:43;22.92;;;9.60;;
70322;SDS011;57735;56.264;43.898;2022-08-21T05:01:15;17.05;;;8.65;;
70322;SDS011;57735;56.264;43.898;2022-08-21T05:03:49;22.67;;;9.75;;
70322;SDS011;57735;56.264;43.898;2022-08-21T05:06:22;23.77;;;10.97;;
70322;SDS011;57735;56.264;43.898;2022-08-21T05:09:00;26.10;;;10.45;;
70322;SDS011;57735;56.264;43.898;2022-08-21T05:11:32;23.40;;;10.43;;
70322;SDS011;57735;56.264;43.898;2022-08-21T05:14:03;21.35;;;10.52;;
70322;SDS011;57735;56.264;43.898;2022-08-21T05:16:34;25.95;;;11.15;;
70322;SDS011;57735;56.264;43.898;2022-08-21T05:19:05;20.20;;;11.15;;
70322;SDS011;57735;56.264;43.898;2022-08-21T05:21:38;21.17;;;10.23;;
70322;SDS011;57735;56.264;43.898;2022-08-21T05:24:13;23.25;;;10.88;;
70322;SDS011;57735;56.264;43.898;2022-08-21T05:26:44;20.58;;;10.65;;
70322;SDS011;57735;56.264;43.898;2022-08-21T05:31:50;22.63;;;10.27;;
70322;SDS011;57735;56.264;43.898;2022-08-21T05:34:22;68.65;;;11.60;;
70322;SDS011;57735;56.264;43.898;2022-08-21T05:36:53;21.08;;;9.82;;
70322;SDS011;57735;56.264;43.898;2022-08-21T05:39:24;23.42;;;13.32;;
70322;SDS011;57735;56.264;43.898;2022-08-21T05:41:54;22.40;;;11.07;;
70322;SDS011;57735;56.264;43.898;2022-08-21T05:44:25;17.02;;;10.02;;
70322;SDS011;57735;56.264;43.898;2022-08-21T05:47:02;22.42;;;9.70;;
70322;SDS011;57735;56.264;43.898;2022-08-21T05:49:37;24.75;;;10.73;;
70322;SDS011;57735;56.264;43.898;2022-08-21T05:52:08;25.23;;;10.55;;
70322;SDS011;57735;56.264;43.898;2022-08-21T05:54:39;25.13;;;11.05;;
70322;SDS011;57735;56.264;43.898;2022-08-21T05:57:12;22.30;;;10.80;;
70322;SDS011;57735;56.264;43.898;2022-08-21T05:59:43;17.40;;;8.18;;
70322;SDS011;57735;56.264;43.898;2022-08-21T06:02:16;20.80;;;9.43;;
70322;SDS011;57735;56.264;43.898;2022-08-21T06:04:51;28.40;;;9.23;;
70322;SDS011;57735;56.264;43.898;2022-08-21T06:07:22;16.38;;;8.93;;
70322;SDS011;57735;56.264;43.898;2022-08-21T06:09:52;17.77;;;8.40;;
70322;SDS011;57735;56.264;43.898;2022-08-21T06:12:23;18.13;;;7.35;;
70322;SDS011;57735;56.264;43.898;2022-08-21T06:14:55;19.52;;;8.18;;
70322;SDS011;57735;56.264;43.898;2022-08-21T06:17:28;18.35;;;9.10;;
70322;SDS011;57735;56.264;43.898;2022-08-21T06:19:58;25.08;;;10.25;;
70322;SDS011;57735;56.264;43.898;2022-08-21T06:22:33;18.35;;;9.30;;
70322;SDS011;57735;56.264;43.898;2022-08-21T06:25:04;19.27;;;9.95;;
70322;SDS011;57735;56.264;43.898;2022-08-21T06:27:35;17.02;;;8.85;;
70322;SDS011;57735;56.264;43.898;2022-08-21T06:30:07;12.40;;;6.65;;
70322;SDS011;57735;56.264;43.898;2022-08-21T06:32:38;15.88;;;9.75;;
70322;SDS011;57735;56.264;43.898;2022-08-21T06:35:14;22.05;;;9.00;;
70322;SDS011;57735;56.264;43.898;2022-08-21T06:37:45;17.35;;;6.57;;
70322;SDS011;57735;56.264;43.898;2022-08-21T06:40:15;13.05;;;6.32;;
70322;SDS011;57735;56.264;43.898;2022-08-21T06:42:47;10.20;;;5.72;;
70322;SDS011;57735;56.264;43.898;2022-08-21T06:45:20;14.30;;;5.72;;
70322;SDS011;57735;56.264;43.898;2022-08-21T06:47:51;12.50;;;6.05;;
70322;SDS011;57735;56.264;43.898;2022-08-21T06:50:22;16.92;;;6.00;;
70322;SDS011;57735;56.264;43.898;2022-08-21T06:53:26;11.98;;;6.00;;
70322;SDS011;57735;56.264;43.898;2022-08-21T06:55:50;13.25;;;5.80;;
70322;SDS011;57735;56.264;43.898;2022-08-21T06:58:21;13.60;;;6.22;;
70322;SDS011;57735;56.264;43.898;2022-08-21T07:00:52;15.02;;;7.28;;
70322;SDS011;57735;56.264;43.898;2022-08-21T07:03:30;17.43;;;7.00;;
70322;SDS011;57735;56.264;43.898;2022-08-21T07:06:05;13.18;;;6.53;;
70322;SDS011;57735;56.264;43.898;2022-08-21T07:08:37;15.73;;;7.03;;
70322;SDS011;57735;56.264;43.898;2022-08-21T07:11:17;20.45;;;7.53;;
70322;SDS011;57735;56.264;43.898;2022-08-21T07:13:49;16.48;;;6.25;;
70322;SDS011;57735;56.264;43.898;2022-08-21T07:16:22;13.50;;;6.43;;
70322;SDS011;57735;56.264;43.898;2022-08-21T07:18:54;18.88;;;7.68;;
70322;SDS011;57735;56.264;43.898;2022-08-21T07:21:28;14.52;;;6.93;;
70322;SDS011;57735;56.264;43.898;2022-08-21T07:23:58;16.45;;;7.47;;
70322;SDS011;57735;56.264;43.898;2022-08-21T07:26:29;16.35;;;7.90;;
70322;SDS011;57735;56.264;43.898;2022-08-21T07:29:00;16.02;;;7.65;;
70322;SDS011;57735;56.264;43.898;2022-08-21T07:31:31;15.60;;;7.13;;
70322;SDS011;57735;56.264;43.898;2022-08-21T07:34:02;16.17;;;6.40;;
70322;SDS011;57735;56.264;43.898;2022-08-21T07:36:35;11.20;;;6.20;;
70322;SDS011;57735;56.264;43.898;2022-08-21T07:39:08;12.77;;;5.95;;
70322;SDS011;57735;56.264;43.898;2022-08-21T07:41:39;11.05;;;4.63;;
70322;SDS011;57735;56.264;43.898;2022-08-21T07:44:09;6.90;;;4.10;;
70322;SDS011;57735;56.264;43.898;2022-08-21T07:46:40;8.50;;;3.88;;
70322;SDS011;57735;56.264;43.898;2022-08-21T07:49:11;10.25;;;3.95;;
70322;SDS011;57735;56.264;43.898;2022-08-21T07:51:42;8.50;;;3.45;;
70322;SDS011;57735;56.264;43.898;2022-08-21T07:54:15;6.60;;;3.00;;
70322;SDS011;57735;56.264;43.898;2022-08-21T07:56:46;9.85;;;3.00;;
70322;SDS011;57735;56.264;43.898;2022-08-21T07:59:17;11.07;;;2.95;;
70322;SDS011;57735;56.264;43.898;2022-08-21T08:01:47;11.10;;;2.70;;
70322;SDS011;57735;56.264;43.898;2022-08-21T08:04:20;4.82;;;2.70;;
70322;SDS011;57735;56.264;43.898;2022-08-21T08:06:51;7.78;;;3.17;;
70322;SDS011;57735;56.264;43.898;2022-08-21T08:09:23;9.90;;;2.80;;
70322;SDS011;57735;56.264;43.898;2022-08-21T08:11:56;10.45;;;2.88;;
70322;SDS011;57735;56.264;43.898;2022-08-21T08:14:27;4.28;;;2.75;;
70322;SDS011;57735;56.264;43.898;2022-08-21T08:17:00;11.97;;;3.57;;
70322;SDS011;57735;56.264;43.898;2022-08-21T08:19:32;6.32;;;2.63;;
70322;SDS011;57735;56.264;43.898;2022-08-21T08:22:12;5.75;;;2.80;;
70322;SDS011;57735;56.264;43.898;2022-08-21T08:24:45;7.07;;;2.85;;
70322;SDS011;57735;56.264;43.898;2022-08-21T08:27:16;11.68;;;3.28;;
70322;SDS011;57735;56.264;43.898;2022-08-21T08:29:48;3.67;;;2.53;;
70322;SDS011;57735;56.264;43.898;2022-08-21T08:32:19;9.30;;;2.67;;
70322;SDS011;57735;56.264;43.898;2022-08-21T08:34:50;8.25;;;2.83;;
70322;SDS011;57735;56.264;43.898;2022-08-21T08:37:22;10.98;;;3.03;;
70322;SDS011;57735;56.264;43.898;2022-08-21T08:39:52;7.97;;;2.70;;
70322;SDS011;57735;56.264;43.898;2022-08-21T08:42:33;6.00;;;2.83;;
70322;SDS011;57735;56.264;43.898;2022-08-21T08:45:11;10.20;;;2.80;;
70322;SDS011;57735;56.264;43.898;2022-08-21T08:47:47;4.78;;;2.83;;
70322;SDS011;57735;56.264;43.898;2022-08-21T08:50:39;3.78;;;2.50;;
70322;SDS011;57735;56.264;43.898;2022-08-21T08:55:52;6.15;;;2.70;;
70322;SDS011;57735;56.264;43.898;2022-08-21T08:58:28;5.82;;;2.80;;
70322;SDS011;57735;56.264;43.898;2022-08-21T09:01:15;7.50;;;3.10;;
70322;SDS011;57735;56.264;43.898;2022-08-21T09:03:48;5.25;;;2.63;;
70322;SDS011;57735;56.264;43.898;2022-08-21T09:12:09;10.80;;;3.03;;
70322;SDS011;57735;56.264;43.898;2022-08-21T09:18:05;8.32;;;2.70;;
70322;SDS011;57735;56.264;43.898;2022-08-21T09:20:56;6.85;;;2.75;;
70322;SDS011;57735;56.264;43.898;2022-08-21T09:26:53;5.82;;;2.83;;
70322;SDS011;57735;56.264;43.898;2022-08-21T09:29:33;8.40;;;3.42;;
70322;SDS011;57735;56.264;43.898;2022-08-21T09:32:19;12.13;;;3.28;;
70322;SDS011;57735;56.264;43.898;2022-08-21T09:34:57;5.97;;;2.70;;
70322;SDS011;57735;56.264;43.898;2022-08-21T09:37:31;8.95;;;2.60;;
70322;SDS011;57735;56.264;43.898;2022-08-21T09:40:15;8.10;;;2.63;;
70322;SDS011;57735;56.264;43.898;2022-08-21T09:42:54;10.65;;;2.72;;
70322;SDS011;57735;56.264;43.898;2022-08-21T09:45:27;15.63;;;2.63;;
70322;SDS011;57735;56.264;43.898;2022-08-21T09:48:08;4.43;;;2.22;;
70322;SDS011;57735;56.264;43.898;2022-08-21T09:50:40;6.97;;;2.70;;
70322;SDS011;57735;56.264;43.898;2022-08-21T09:53:22;7.72;;;2.83;;
70322;SDS011;57735;56.264;43.898;2022-08-21T09:55:59;5.75;;;2.70;;
70322;SDS011;57735;56.264;43.898;2022-08-21T09:58:53;6.00;;;2.83;;
70322;SDS011;57735;56.264;43.898;2022-08-21T10:01:25;7.47;;;2.65;;
70322;SDS011;57735;56.264;43.898;2022-08-21T10:04:07;4.28;;;2.40;;
70322;SDS011;57735;56.264;43.898;2022-08-21T10:06:39;6.53;;;2.55;;
70322;SDS011;57735;56.264;43.898;2022-08-21T10:09:13;4.85;;;2.60;;
70322;SDS011;57735;56.264;43.898;2022-08-21T10:18:06;8.13;;;3.00;;
70322;SDS011;57735;56.264;43.898;2022-08-21T10:23:50;4.50;;;2.30;;
70322;SDS011;57735;56.264;43.898;2022-08-21T10:37:13;7.55;;;2.58;;
70322;SDS011;57735;56.264;43.898;2022-08-21T10:40:15;8.20;;;2.30;;
70322;SDS011;57735;56.264;43.898;2022-08-21T10:48:54;8.48;;;2.80;;
70322;SDS011;57735;56.264;43.898;2022-08-21T10:51:34;9.00;;;2.63;;
70322;SDS011;57735;56.264;43.898;2022-08-21T10:56:56;7.40;;;2.50;;
70322;SDS011;57735;56.264;43.898;2022-08-21T10:59:44;7.38;;;2.17;;
70322;SDS011;57735;56.264;43.898;2022-08-21T11:02:26;7.45;;;2.20;;
70322;SDS011;57735;56.264;43.898;2022-08-21T11:05:33;6.03;;;2.47;;
70322;SDS011;57735;56.264;43.898;2022-08-21T11:08:12;5.43;;;2.55;;
70322;SDS011;57735;56.264;43.898;2022-08-21T11:10:52;6.00;;;2.53;;
70322;SDS011;57735;56.264;43.898;2022-08-21T11:22:07;4.05;;;2.30;;
70322;SDS011;57735;56.264;43.898;2022-08-21T11:24:50;6.20;;;2.45;;
70322;SDS011;57735;56.264;43.898;2022-08-21T11:30:07;5.05;;;2.40;;
70322;SDS011;57735;56.264;43.898;2022-08-21T11:32:55;4.00;;;2.50;;
70322;SDS011;57735;56.264;43.898;2022-08-21T11:38:35;8.05;;;2.22;;
70322;SDS011;57735;56.264;43.898;2022-08-21T11:41:46;4.60;;;2.20;;
70322;SDS011;57735;56.264;43.898;2022-08-21T11:44:23;4.07;;;2.40;;
70322;SDS011;57735;56.264;43.898;2022-08-21T11:52:10;5.47;;;2.35;;
70322;SDS011;57735;56.264;43.898;2022-08-21T11:58:02;6.53;;;2.65;;
70322;SDS011;57735;56.264;43.898;2022-08-21T12:00:38;6.55;;;2.30;;
70322;SDS011;57735;56.264;43.898;2022-08-21T12:03:39;6.93;;;1.92;;
70322;SDS011;57735;56.264;43.898;2022-08-21T12:06:11;17.25;;;3.40;;
70322;SDS011;57735;56.264;43.898;2022-08-21T12:08:56;6.00;;;2.38;;
70322;SDS011;57735;56.264;43.898;2022-08-21T12:11:29;4.88;;;2.35;;
70322;SDS011;57735;56.264;43.898;2022-08-21T12:16:37;4.35;;;2.30;;
70322;SDS011;57735;56.264;43.898;2022-08-21T12:21:52;4.78;;;2.22;;
70322;SDS011;57735;56.264;43.898;2022-08-21T12:30:33;5.38;;;2.63;;
70322;SDS011;57735;56.264;43.898;2022-08-21T12:36:10;5.50;;;2.40;;
70322;SDS011;57735;56.264;43.898;2022-08-21T12:38:47;3.83;;;2.42;;
70322;SDS011;57735;56.264;43.898;2022-08-21T12:41:32;5.72;;;2.40;;
70322;SDS011;57735;56.264;43.898;2022-08-21T12:44:15;5.55;;;2.60;;
70322;SDS011;57735;56.264;43.898;2022-08-21T12:46:56;8.32;;;2.88;;
70322;SDS011;57735;56.264;43.898;2022-08-21T12:49:31;9.00;;;3.30;;
70322;SDS011;57735;56.264;43.898;2022-08-21T12:52:23;3.03;;;2.40;;
70322;SDS011;57735;56.264;43.898;2022-08-21T12:55:03;6.57;;;2.40;;
70322;SDS011;57735;56.264;43.898;2022-08-21T12:57:39;6.70;;;2.40;;
70322;SDS011;57735;56.264;43.898;2022-08-21T13:00:12;5.22;;;2.30;;
70322;SDS011;57735;56.264;43.898;2022-08-21T13:02:51;6.68;;;2.33;;
70322;SDS011;57735;56.264;43.898;2022-08-21T13:05:31;2.65;;;1.90;;
70322;SDS011;57735;56.264;43.898;2022-08-21T13:08:06;6.15;;;2.42;;
70322;SDS011;57735;56.264;43.898;2022-08-21T13:10:41;7.75;;;2.40;;
70322;SDS011;57735;56.264;43.898;2022-08-21T13:13:17;5.28;;;2.45;;
70322;SDS011;57735;56.264;43.898;2022-08-21T13:15:56;10.18;;;2.60;;
70322;SDS011;57735;56.264;43.898;2022-08-21T13:18:33;4.03;;;2.30;;
70322;SDS011;57735;56.264;43.898;2022-08-21T13:21:09;6.63;;;2.40;;
70322;SDS011;57735;56.264;43.898;2022-08-21T13:23:44;10.30;;;2.30;;
70322;SDS011;57735;56.264;43.898;2022-08-21T13:26:21;6.30;;;2.47;;
70322;SDS011;57735;56.264;43.898;2022-08-21T13:28:52;4.32;;;2.13;;
70322;SDS011;57735;56.264;43.898;2022-08-21T13:31:26;10.68;;;2.85;;
70322;SDS011;57735;56.264;43.898;2022-08-21T13:34:05;10.50;;;2.60;;
70322;SDS011;57735;56.264;43.898;2022-08-21T13:36:39;7.53;;;2.85;;
70322;SDS011;57735;56.264;43.898;2022-08-21T13:39:15;8.88;;;2.95;;
70322;SDS011;57735;56.264;43.898;2022-08-21T13:41:49;3.97;;;1.90;;
70322;SDS011;57735;56.264;43.898;2022-08-21T13:44:34;6.30;;;2.25;;
70322;SDS011;57735;56.264;43.898;2022-08-21T13:47:13;4.03;;;2.17;;
70322;SDS011;57735;56.264;43.898;2022-08-21T13:49:51;4.22;;;2.58;;
70322;SDS011;57735;56.264;43.898;2022-08-21T13:52:24;5.63;;;2.80;;
70322;SDS011;57735;56.264;43.898;2022-08-21T13:57:29;5.25;;;2.38;;
70322;SDS011;57735;56.264;43.898;2022-08-21T14:06:01;6.22;;;2.35;;
70322;SDS011;57735;56.264;43.898;2022-08-21T14:11:09;3.47;;;2.13;;
70322;SDS011;57735;56.264;43.898;2022-08-21T14:16:23;7.75;;;2.45;;
70322;SDS011;57735;56.264;43.898;2022-08-21T14:21:34;3.30;;;2.17;;
70322;SDS011;57735;56.264;43.898;2022-08-21T14:29:38;6.00;;;2.40;;
70322;SDS011;57735;56.264;43.898;2022-08-21T14:32:13;3.38;;;2.05;;
70322;SDS011;57735;56.264;43.898;2022-08-21T14:34:46;7.00;;;2.60;;
70322;SDS011;57735;56.264;43.898;2022-08-21T14:37:17;7.78;;;2.95;;
70322;SDS011;57735;56.264;43.898;2022-08-21T14:39:48;6.82;;;2.75;;
70322;SDS011;57735;56.264;43.898;2022-08-21T14:42:19;4.55;;;2.63;;
70322;SDS011;57735;56.264;43.898;2022-08-21T14:44:50;4.60;;;2.45;;
70322;SDS011;57735;56.264;43.898;2022-08-21T14:47:21;9.50;;;3.10;;
70322;SDS011;57735;56.264;43.898;2022-08-21T14:49:52;7.63;;;2.33;;
70322;SDS011;57735;56.264;43.898;2022-08-21T14:52:24;4.97;;;2.70;;
70322;SDS011;57735;56.264;43.898;2022-08-21T14:54:54;6.55;;;2.80;;
70322;SDS011;57735;56.264;43.898;2022-08-21T14:57:28;9.02;;;2.75;;
70322;SDS011;57735;56.264;43.898;2022-08-21T15:00:04;5.32;;;2.63;;
70322;SDS011;57735;56.264;43.898;2022-08-21T15:02:35;12.05;;;5.07;;
70322;SDS011;57735;56.264;43.898;2022-08-21T15:05:09;5.60;;;2.88;;
70322;SDS011;57735;56.264;43.898;2022-08-21T15:07:40;9.90;;;2.97;;
70322;SDS011;57735;56.264;43.898;2022-08-21T15:10:11;9.60;;;2.75;;
70322;SDS011;57735;56.264;43.898;2022-08-21T15:12:45;9.68;;;2.63;;
70322;SDS011;57735;56.264;43.898;2022-08-21T15:15:15;5.85;;;2.67;;
70322;SDS011;57735;56.264;43.898;2022-08-21T15:17:46;9.23;;;3.00;;
70322;SDS011;57735;56.264;43.898;2022-08-21T15:20:17;10.18;;;2.97;;
70322;SDS011;57735;56.264;43.898;2022-08-21T15:22:48;7.97;;;2.83;;
70322;SDS011;57735;56.264;43.898;2022-08-21T15:25:22;4.75;;;2.58;;
70322;SDS011;57735;56.264;43.898;2022-08-21T15:27:53;7.25;;;2.80;;
70322;SDS011;57735;56.264;43.898;2022-08-21T15:30:24;12.07;;;3.03;;
70322;SDS011;57735;56.264;43.898;2022-08-21T15:32:55;6.30;;;2.85;;
70322;SDS011;57735;56.264;43.898;2022-08-21T15:35:26;7.00;;;2.83;;
70322;SDS011;57735;56.264;43.898;2022-08-21T15:37:57;11.40;;;3.05;;
70322;SDS011;57735;56.264;43.898;2022-08-21T15:40:28;4.70;;;2.80;;
70322;SDS011;57735;56.264;43.898;2022-08-21T15:43:04;9.30;;;2.92;;
70322;SDS011;57735;56.264;43.898;2022-08-21T15:45:35;5.05;;;2.72;;
70322;SDS011;57735;56.264;43.898;2022-08-21T15:48:06;12.65;;;3.30;;
70322;SDS011;57735;56.264;43.898;2022-08-21T15:50:37;10.38;;;3.25;;
70322;SDS011;57735;56.264;43.898;2022-08-21T15:53:08;8.10;;;3.25;;
70322;SDS011;57735;56.264;43.898;2022-08-21T15:55:38;9.27;;;3.15;;
70322;SDS011;57735;56.264;43.898;2022-08-21T15:58:14;8.80;;;2.95;;
70322;SDS011;57735;56.264;43.898;2022-08-21T16:00:45;5.97;;;2.95;;
70322;SDS011;57735;56.264;43.898;2022-08-21T16:03:17;10.38;;;2.65;;
70322;SDS011;57735;56.264;43.898;2022-08-21T16:05:51;7.72;;;3.50;;
70322;SDS011;57735;56.264;43.898;2022-08-21T16:08:23;8.57;;;3.42;;
70322;SDS011;57735;56.264;43.898;2022-08-21T16:10:54;7.93;;;2.92;;
70322;SDS011;57735;56.264;43.898;2022-08-21T16:13:27;6.50;;;2.85;;
70322;SDS011;57735;56.264;43.898;2022-08-21T16:15:59;5.57;;;3.00;;
70322;SDS011;57735;56.264;43.898;2022-08-21T16:18:30;8.07;;;3.40;;
70322;SDS011;57735;56.264;43.898;2022-08-21T16:21:02;9.35;;;3.10;;
70322;SDS011;57735;56.264;43.898;2022-08-21T16:23:36;11.07;;;3.15;;
70322;SDS011;57735;56.264;43.898;2022-08-21T16:26:08;9.27;;;3.30;;
70322;SDS011;57735;56.264;43.898;2022-08-21T16:28:44;9.82;;;3.40;;
70322;SDS011;57735;56.264;43.898;2022-08-21T16:31:20;125.07;;;8.50;;
70322;SDS011;57735;56.264;43.898;2022-08-21T16:33:52;11.48;;;3.30;;
70322;SDS011;57735;56.264;43.898;2022-08-21T16:36:25;7.55;;;3.03;;
70322;SDS011;57735;56.264;43.898;2022-08-21T16:38:57;14.18;;;3.95;;
70322;SDS011;57735;56.264;43.898;2022-08-21T16:41:30;9.68;;;3.22;;
70322;SDS011;57735;56.264;43.898;2022-08-21T16:44:03;10.70;;;3.45;;
70322;SDS011;57735;56.264;43.898;2022-08-21T16:46:37;9.90;;;3.58;;
70322;SDS011;57735;56.264;43.898;2022-08-21T16:49:14;8.38;;;3.53;;
70322;SDS011;57735;56.264;43.898;2022-08-21T16:51:45;17.02;;;4.60;;
70322;SDS011;57735;56.264;43.898;2022-08-21T16:54:17;10.52;;;3.65;;
70322;SDS011;57735;56.264;43.898;2022-08-21T16:56:49;8.98;;;3.50;;